createdAt,value
2018-02-06T00:00:40.924Z,26.58
2018-02-06T00:03:09.937Z,27.83
2018-02-06T00:05:38.199Z,25.33
2018-02-06T00:08:06.450Z,28.17
2018-02-06T00:10:35.475Z,25.58
2018-02-06T00:13:03.729Z,31.95
2018-02-06T00:15:32.766Z,24.92
2018-02-06T00:18:01.026Z,27.77
2018-02-06T00:20:29.322Z,26.62
2018-02-06T00:22:57.542Z,27.83
2018-02-06T00:25:26.574Z,30.10
2018-02-06T00:27:54.826Z,28.92
2018-02-06T00:30:23.083Z,31.40
2018-02-06T00:32:52.109Z,35.92
2018-02-06T00:35:20.362Z,34.67
2018-02-06T00:37:48.627Z,31.83
2018-02-06T00:40:17.645Z,27.73
2018-02-06T00:42:45.911Z,31.10
2018-02-06T00:45:14.927Z,32.70
2018-02-06T00:47:43.184Z,29.98
2018-02-06T00:50:11.433Z,27.85
2018-02-06T00:52:40.473Z,28.70
2018-02-06T00:55:08.718Z,27.92
2018-02-06T00:57:37.742Z,28.12
2018-02-06T01:00:05.997Z,29.17
2018-02-06T01:02:34.261Z,24.87
2018-02-06T01:05:03.284Z,26.48
2018-02-06T01:07:31.548Z,27.05
2018-02-06T01:09:59.806Z,25.52
2018-02-06T01:12:28.844Z,26.60
2018-02-06T01:14:57.100Z,27.73
2018-02-06T01:17:25.365Z,24.02
2018-02-06T01:19:53.632Z,24.65
2018-02-06T01:22:22.650Z,29.37
2018-02-06T01:24:50.911Z,23.80
2018-02-06T01:27:19.174Z,26.95
2018-02-06T01:29:48.204Z,26.70
2018-02-06T01:32:16.463Z,25.70
2018-02-06T01:34:44.721Z,23.12
2018-02-06T01:37:12.969Z,26.35
2018-02-06T01:39:42.017Z,24.25
2018-02-06T01:42:10.261Z,25.30
2018-02-06T01:44:39.285Z,29.77
2018-02-06T01:47:07.552Z,22.98
2018-02-06T01:49:35.817Z,29.15
2018-02-06T01:52:04.071Z,24.52
2018-02-06T01:54:33.098Z,28.23
2018-02-06T01:57:01.350Z,25.45
2018-02-06T01:59:30.383Z,29.58
2018-02-06T02:01:58.629Z,30.88
2018-02-06T02:04:26.896Z,26.77
2018-02-06T02:06:55.915Z,31.52
2018-02-06T02:09:24.180Z,30.25
2018-02-06T02:11:52.433Z,30.42
2018-02-06T02:14:21.461Z,28.90
2018-02-06T02:16:49.725Z,31.55
2018-02-06T02:19:17.987Z,31.40
2018-02-06T02:21:46.245Z,29.90
2018-02-06T02:24:15.271Z,27.98
2018-02-06T02:26:43.531Z,28.27
2018-02-06T02:29:11.795Z,21.30
2018-02-06T02:31:40.819Z,28.83
2018-02-06T02:34:09.090Z,30.20
2018-02-06T02:36:37.351Z,26.65
2018-02-06T02:39:06.382Z,22.80
2018-02-06T02:41:34.622Z,25.45
2018-02-06T04:40:24.050Z,26.15
2018-02-06T04:42:52.313Z,32.17
2018-02-06T04:45:21.337Z,26.73
2018-02-06T04:47:49.607Z,25.10
2018-02-06T04:50:17.866Z,28.80
2018-02-06T04:52:46.882Z,27.73
2018-02-06T04:55:15.143Z,23.00
2018-02-06T04:57:43.415Z,27.50
2018-02-06T05:00:11.670Z,24.87
2018-02-06T05:02:40.709Z,24.80
2018-02-06T05:05:08.966Z,31.00
2018-02-06T05:07:37.320Z,28.77
2018-02-06T05:10:06.348Z,28.62
2018-02-06T05:12:34.603Z,31.42
2018-02-06T05:15:03.622Z,24.67
2018-02-06T05:17:31.874Z,23.95
2018-02-06T05:20:00.129Z,31.25
2018-02-06T05:22:28.387Z,28.87
2018-02-06T05:24:56.633Z,29.35
2018-02-06T05:27:24.902Z,31.60
2018-02-06T05:29:53.155Z,36.58
2018-02-06T05:32:21.423Z,33.45
2018-02-06T05:34:50.439Z,32.55
2018-02-06T05:37:18.685Z,31.25
2018-02-06T05:39:47.716Z,26.60
2018-02-06T05:42:15.962Z,27.33
2018-02-06T05:44:44.990Z,29.02
2018-02-06T05:47:13.242Z,26.58
2018-02-06T05:49:41.505Z,26.55
2018-02-06T05:52:10.521Z,29.25
2018-02-06T05:54:38.787Z,28.92
2018-02-06T05:57:07.030Z,25.88
2018-02-06T05:59:36.059Z,27.25
2018-02-06T06:02:04.306Z,26.05
2018-02-06T06:04:33.326Z,24.55
2018-02-06T06:07:01.581Z,22.73
2018-02-06T06:09:30.610Z,26.50
2018-02-06T06:11:58.870Z,24.75
2018-02-06T06:14:27.140Z,26.23
2018-02-06T06:16:55.392Z,28.52
2018-02-06T06:19:24.425Z,26.67
2018-02-06T06:21:52.694Z,26.40
2018-02-06T06:24:20.954Z,26.80
2018-02-06T06:26:49.979Z,26.10
2018-02-06T06:29:18.240Z,28.80
2018-02-06T06:31:46.495Z,24.92
2018-02-06T06:34:15.526Z,25.70
2018-02-06T06:36:43.781Z,26.48
2018-02-06T06:39:12.034Z,29.58
2018-02-06T06:41:41.061Z,26.98
2018-02-06T06:44:09.313Z,28.80
2018-02-06T06:46:37.585Z,27.90
2018-02-06T06:49:06.611Z,30.50
2018-02-06T06:51:34.874Z,31.02
2018-02-06T06:54:03.124Z,23.42
2018-02-06T06:56:32.147Z,28.73
2018-02-06T06:59:00.390Z,29.40
2018-02-06T07:01:29.421Z,23.30
2018-02-06T07:03:57.682Z,23.92
2018-02-06T07:06:25.947Z,22.45
2018-02-06T07:08:54.953Z,22.62
2018-02-06T07:11:23.213Z,25.20
2018-02-06T07:13:51.471Z,25.15
2018-02-06T07:16:20.504Z,22.55
2018-02-06T07:18:48.745Z,24.10
2018-02-06T07:21:17.770Z,24.92
2018-02-06T07:23:46.031Z,24.75
2018-02-06T07:26:14.297Z,25.27
2018-02-06T07:28:42.562Z,27.70
2018-02-06T07:31:11.598Z,25.10
2018-02-06T07:33:39.855Z,23.27
2018-02-06T07:36:08.107Z,19.92
2018-02-06T07:38:37.135Z,23.30
2018-02-06T07:41:05.397Z,29.25
2018-02-06T07:43:33.671Z,27.10
2018-02-06T07:46:01.926Z,23.67
2018-02-06T07:48:30.955Z,20.48
2018-02-06T07:50:59.248Z,22.77
2018-02-06T07:53:27.474Z,23.05
2018-02-06T07:55:56.501Z,21.87
2018-02-06T07:58:24.763Z,21.08
2018-02-06T08:00:53.026Z,25.65
2018-02-06T08:03:22.057Z,19.83
2018-02-06T08:05:50.310Z,22.87
2018-02-06T08:08:18.588Z,28.27
2018-02-06T08:10:46.855Z,20.02
2018-02-06T08:13:15.126Z,22.33
2018-02-06T08:15:44.151Z,22.37
2018-02-06T08:18:12.417Z,22.73
2018-02-06T08:20:40.674Z,24.15
2018-02-06T08:23:08.952Z,21.25
2018-02-06T08:25:37.211Z,25.12
2018-02-06T08:28:06.243Z,25.25
2018-02-06T08:30:34.511Z,19.73
2018-02-06T08:33:02.767Z,19.65
2018-02-06T08:35:31.037Z,25.48
2018-02-06T08:38:00.065Z,21.15
2018-02-06T08:40:28.334Z,20.98
2018-02-06T08:42:56.598Z,21.42
2018-02-06T08:45:24.865Z,24.70
2018-02-06T08:47:53.125Z,26.40
2018-02-06T08:50:22.168Z,29.00
2018-02-06T08:52:50.433Z,23.90
2018-02-06T08:55:18.697Z,28.80
2018-02-06T08:57:46.962Z,23.20
2018-02-06T09:00:15.242Z,23.83
2018-02-06T09:02:43.496Z,21.93
2018-02-06T09:05:12.533Z,25.58
2018-02-06T09:07:40.804Z,22.42
2018-02-06T09:10:09.110Z,23.08
2018-02-06T09:12:38.125Z,20.50
2018-02-06T09:15:07.157Z,22.45
2018-02-06T09:17:35.439Z,22.90
2018-02-06T09:20:03.704Z,23.67
2018-02-06T09:22:31.970Z,28.77
2018-02-06T09:25:00.237Z,31.03
2018-02-06T09:27:28.513Z,22.58
2018-02-06T09:29:57.533Z,24.00
2018-02-06T09:32:25.801Z,23.67
2018-02-06T09:34:54.069Z,24.10
2018-02-06T09:37:22.341Z,23.77
2018-02-06T09:39:50.616Z,22.53
2018-02-06T09:42:18.887Z,25.27
2018-02-06T09:44:47.909Z,23.57
2018-02-06T09:47:16.171Z,24.57
2018-02-06T09:49:44.424Z,25.50
2018-02-06T09:52:13.449Z,29.50
2018-02-06T09:54:41.701Z,24.43
2018-02-06T09:57:10.733Z,31.17
2018-02-06T09:59:38.992Z,28.57
2018-02-06T10:02:07.245Z,32.87
2018-02-06T10:04:36.269Z,28.87
2018-02-06T10:07:04.527Z,29.57
2018-02-06T10:09:32.801Z,24.80
2018-02-06T10:12:01.063Z,31.40
2018-02-06T10:14:30.095Z,28.77
2018-02-06T10:16:58.345Z,26.07
2018-02-06T10:19:26.613Z,32.07
2018-02-06T10:21:55.639Z,24.67
2018-02-06T10:24:23.899Z,28.87
2018-02-06T10:26:52.152Z,34.00
2018-02-06T10:29:21.182Z,26.90
2018-02-06T10:31:49.437Z,29.23
2018-02-06T10:34:17.703Z,29.17
2018-02-06T10:36:45.963Z,30.77
2018-02-06T10:39:14.986Z,31.47
2018-02-06T10:41:43.239Z,24.53
2018-02-06T10:44:15.357Z,24.30
2018-02-06T10:46:43.623Z,28.13
2018-02-06T10:49:11.865Z,27.97
2018-02-06T10:51:40.885Z,26.00
2018-02-06T10:54:09.141Z,23.05
2018-02-06T10:56:37.398Z,26.00
2018-02-06T10:59:06.414Z,34.77
2018-02-06T11:01:34.671Z,25.20
2018-02-06T11:04:03.684Z,28.97
2018-02-06T11:06:31.944Z,27.13
2018-02-06T11:09:00.958Z,30.93
2018-02-06T11:11:29.212Z,29.03
2018-02-06T11:13:58.227Z,24.90
2018-02-06T11:16:26.478Z,25.30
2018-02-06T11:18:55.499Z,26.27
2018-02-06T11:21:23.750Z,28.53
2018-02-06T11:23:52.761Z,27.53
2018-02-06T11:26:21.016Z,27.30
2018-02-06T11:28:50.705Z,27.87
2018-02-06T11:31:18.958Z,29.07
2018-02-06T11:33:47.213Z,27.43
2018-02-06T11:36:15.469Z,28.83
2018-02-06T11:38:43.712Z,27.40
2018-02-06T11:41:12.729Z,33.67
2018-02-06T11:43:40.981Z,27.73
2018-02-06T11:46:09.229Z,37.70
2018-02-06T11:48:37.486Z,31.33
2018-02-06T11:51:05.737Z,27.20
2018-02-06T11:53:33.989Z,32.47
2018-02-06T11:56:03.002Z,33.33
2018-02-06T11:58:31.261Z,30.27
2018-02-06T12:01:00.279Z,34.00
2018-02-06T12:03:28.543Z,30.40
2018-02-06T12:05:56.786Z,41.97
2018-02-06T12:08:25.041Z,32.20
2018-02-06T12:10:54.053Z,31.17
2018-02-06T12:13:22.312Z,32.03
2018-02-06T12:15:50.560Z,28.47
2018-02-06T12:18:18.821Z,33.77
2018-02-06T12:20:47.074Z,33.90
2018-02-06T12:23:16.098Z,32.33
2018-02-06T12:25:44.338Z,34.40
2018-02-06T12:28:13.366Z,28.87
2018-02-06T12:30:41.614Z,29.60
2018-02-06T12:33:10.626Z,34.87
2018-02-06T12:35:38.878Z,30.10
2018-02-06T12:38:07.886Z,34.03
2018-02-06T12:40:36.139Z,27.70
2018-02-06T12:43:05.151Z,30.43
2018-02-06T12:45:34.171Z,30.87
2018-02-06T12:48:02.415Z,35.50
2018-02-06T12:50:31.446Z,31.70
2018-02-06T12:52:59.695Z,27.00
2018-02-06T12:55:27.949Z,31.17
2018-02-06T12:57:56.960Z,32.13
2018-02-06T13:00:25.222Z,36.27
2018-02-06T13:02:54.224Z,43.00
2018-02-06T13:05:22.478Z,31.83
2018-02-06T13:07:50.722Z,27.90
2018-02-06T13:10:18.976Z,29.03
2018-02-06T13:12:47.221Z,34.40
2018-02-06T13:15:16.246Z,31.43
2018-02-06T13:17:44.506Z,32.53
2018-02-06T13:20:12.746Z,36.40
2018-02-06T13:22:41.001Z,35.60
2018-02-06T13:25:09.249Z,32.30
2018-02-06T13:27:37.499Z,32.33
2018-02-06T13:30:06.506Z,31.40
2018-02-06T13:32:34.757Z,40.67
2018-02-06T13:35:03.779Z,35.67
2018-02-06T13:37:32.026Z,35.43
2018-02-06T13:40:01.036Z,31.93
2018-02-06T13:42:29.293Z,42.13
2018-02-06T13:44:58.305Z,34.90
2018-02-06T13:47:26.580Z,35.40
2018-02-06T13:49:54.825Z,38.73
2018-02-06T13:52:23.845Z,35.53
2018-02-06T13:54:52.090Z,33.33
2018-02-06T13:57:20.391Z,29.20
2018-02-06T13:59:49.402Z,36.03
2018-02-06T14:02:17.649Z,29.13
2018-02-06T14:04:46.673Z,35.27
2018-02-06T14:07:14.920Z,35.07
2018-02-06T14:09:43.946Z,34.43
2018-02-06T14:12:12.190Z,38.23
2018-02-06T14:14:41.210Z,33.80
2018-02-06T14:17:09.450Z,38.73
2018-02-06T14:19:38.470Z,33.07
2018-02-06T14:22:06.724Z,30.30
2018-02-06T14:24:35.750Z,31.53
2018-02-06T14:27:03.995Z,36.73
2018-02-06T14:29:33.023Z,39.07
2018-02-06T14:32:01.266Z,43.83
2018-02-06T14:34:30.298Z,30.80
2018-02-06T14:36:58.541Z,38.50
2018-02-06T14:39:26.800Z,32.57
2018-02-06T14:41:55.813Z,36.37
2018-02-06T14:44:24.070Z,32.60
2018-02-06T14:46:53.085Z,30.20
2018-02-06T14:49:21.345Z,34.53
2018-02-06T14:51:50.361Z,30.40
2018-02-06T14:54:18.617Z,36.00
2018-02-06T14:56:47.625Z,36.03
2018-02-06T14:59:15.884Z,35.77
2018-02-06T15:01:44.146Z,33.70
2018-02-06T15:04:13.166Z,33.07
2018-02-06T15:06:41.421Z,38.27
2018-02-06T15:09:10.441Z,32.07
2018-02-06T15:11:38.707Z,34.00
2018-02-06T15:14:07.717Z,36.80
2018-02-06T15:16:35.979Z,32.43
2018-02-06T15:19:04.254Z,36.67
2018-02-06T15:21:32.511Z,37.53
2018-02-06T15:24:01.522Z,39.80
2018-02-06T15:26:29.777Z,40.03
2018-02-06T15:28:58.799Z,37.97
2018-02-06T15:31:27.063Z,98.07
2018-02-06T15:33:55.310Z,51.65
2018-02-06T15:36:23.571Z,36.10
2018-02-06T15:38:51.818Z,40.77
2018-02-06T15:41:20.082Z,32.73
2018-02-06T15:43:48.330Z,40.17
2018-02-06T15:46:16.590Z,36.10
2018-02-06T15:48:45.606Z,36.90
2018-02-06T15:51:13.858Z,37.83
2018-02-06T15:53:42.873Z,36.50
2018-02-06T15:56:11.137Z,41.60
2018-02-06T15:58:40.162Z,37.08
2018-02-06T16:01:10.692Z,66.05
2018-02-06T16:03:38.940Z,38.60
2018-02-06T16:06:07.243Z,48.17
2018-02-06T16:08:35.506Z,52.78
2018-02-06T16:11:03.750Z,38.10
2018-02-06T16:13:31.999Z,42.67
2018-02-06T16:16:00.249Z,41.60
2018-02-06T16:18:28.511Z,37.00
2018-02-06T16:20:56.761Z,35.33
2018-02-06T16:23:25.791Z,38.05
2018-02-06T16:25:54.049Z,35.33
2018-02-06T16:28:22.313Z,33.55
2018-02-06T16:30:51.330Z,33.33
2018-02-06T16:33:19.595Z,39.63
2018-02-06T16:35:47.846Z,35.20
2018-02-06T16:38:16.881Z,36.85
2018-02-06T16:40:45.130Z,38.87
2018-02-06T16:43:13.394Z,35.43
2018-02-06T16:45:42.417Z,37.65
2018-02-06T16:48:10.682Z,33.85
2018-02-06T16:50:38.932Z,32.10
2018-02-06T16:53:07.971Z,32.00
2018-02-06T16:55:36.230Z,30.52
2018-02-06T16:58:04.502Z,36.25
2018-02-06T17:00:32.759Z,38.83
2018-02-06T17:03:01.781Z,41.55
2018-02-06T17:05:30.049Z,35.53
2018-02-06T17:07:58.310Z,37.20
2018-02-06T17:10:27.347Z,44.95
2018-02-06T17:12:55.619Z,33.25
2018-02-06T17:15:23.886Z,35.17
2018-02-06T17:17:52.149Z,35.90
2018-02-06T17:20:20.417Z,34.05
2018-02-06T17:22:48.673Z,38.97
2018-02-06T17:25:17.717Z,33.33
2018-02-06T17:27:46.751Z,37.13
2018-02-06T17:30:15.030Z,36.92
2018-02-06T17:32:43.282Z,35.00
2018-02-06T17:35:11.559Z,34.60
2018-02-06T17:37:39.814Z,36.13
2018-02-06T17:40:08.088Z,32.70
2018-02-06T17:42:36.349Z,41.95
2018-02-06T17:45:04.622Z,42.55
2018-02-06T17:47:32.885Z,38.42
2018-02-06T17:50:01.152Z,40.03
2018-02-06T17:52:29.417Z,43.33
2018-02-06T17:54:58.445Z,34.75
2018-02-06T17:57:26.710Z,32.58
2018-02-06T17:59:54.980Z,32.40
2018-02-06T18:02:23.237Z,36.35
2018-02-06T18:04:52.271Z,35.95
2018-02-06T18:07:20.525Z,36.63
2018-02-06T18:09:48.791Z,32.38
2018-02-06T18:12:17.057Z,39.83
2018-02-06T18:14:46.087Z,47.22
2018-02-06T18:17:14.358Z,35.05
2018-02-06T18:19:42.622Z,40.58
2018-02-06T18:22:10.901Z,44.38
2018-02-06T18:24:39.158Z,40.70
2018-02-06T18:27:08.195Z,37.30
2018-02-06T18:29:36.441Z,38.38
2018-02-06T18:32:04.713Z,38.67
2018-02-06T18:34:32.970Z,34.75
2018-02-06T18:37:01.999Z,38.30
2018-02-06T18:39:30.259Z,39.10
2018-02-06T18:41:58.520Z,39.05
2018-02-06T18:44:27.542Z,34.83
2018-02-06T18:46:55.863Z,49.60
2018-02-06T18:49:24.126Z,38.97
2018-02-06T18:51:52.391Z,38.38
2018-02-06T18:54:20.653Z,35.88
2018-02-06T18:56:48.964Z,40.88
2018-02-06T18:59:17.221Z,41.40
2018-02-06T19:01:45.477Z,36.53
2018-02-06T19:04:13.745Z,41.92
2018-02-06T19:06:42.003Z,38.17
2018-02-06T19:09:11.035Z,36.38
2018-02-06T19:11:39.309Z,37.00
2018-02-06T19:14:07.557Z,37.45
2018-02-06T19:16:35.817Z,37.45
2018-02-06T19:19:04.853Z,40.55
2018-02-06T19:21:33.156Z,41.75
2018-02-06T19:24:01.470Z,39.78
2018-02-06T19:26:30.481Z,37.55
2018-02-06T19:28:58.804Z,40.08
2018-02-06T19:31:27.059Z,45.05
2018-02-06T19:33:56.149Z,39.28
2018-02-06T19:36:24.402Z,38.63
2018-02-06T19:38:52.747Z,40.83
2018-02-06T19:41:20.990Z,40.72
2018-02-06T19:43:49.257Z,34.45
2018-02-06T19:46:18.338Z,38.95
2018-02-06T19:48:46.598Z,40.97
2018-02-06T19:51:14.909Z,37.35
2018-02-06T19:53:43.892Z,36.25
2018-02-06T19:56:12.149Z,41.72
2018-02-06T19:58:40.419Z,42.50
2018-02-06T20:01:08.678Z,43.35
2018-02-06T20:03:37.707Z,39.95
2018-02-06T20:06:06.027Z,36.38
2018-02-06T20:08:34.326Z,47.35
2018-02-06T20:11:03.411Z,31.65
2018-02-06T20:13:31.665Z,39.83
2018-02-06T20:15:59.984Z,45.88
2018-02-06T20:18:29.016Z,38.35
2018-02-06T20:20:57.345Z,44.05
2018-02-06T20:23:26.413Z,37.33
2018-02-06T20:25:54.674Z,37.83
2018-02-06T20:28:23.693Z,39.33
2018-02-06T20:30:52.739Z,36.97
2018-02-06T20:33:21.042Z,42.60
2018-02-06T20:35:49.297Z,37.33
2018-02-06T20:38:17.559Z,47.08
2018-02-06T20:40:45.823Z,34.47
2018-02-06T20:43:14.089Z,41.25
2018-02-06T20:45:42.393Z,37.88
2018-02-06T20:48:10.700Z,36.90
2018-02-06T20:50:39.007Z,41.50
2018-02-06T20:53:08.037Z,36.47
2018-02-06T20:55:36.293Z,42.60
2018-02-06T20:58:04.562Z,37.05
2018-02-06T21:00:32.822Z,38.28
2018-02-06T21:03:01.850Z,43.17
2018-02-06T21:05:30.113Z,42.65
2018-02-06T21:07:59.133Z,41.22
2018-02-06T21:10:27.396Z,46.25
2018-02-06T21:12:55.676Z,33.75
2018-02-06T21:15:23.926Z,40.00
2018-02-06T21:17:52.204Z,38.72
2018-02-06T21:20:20.464Z,43.22
2018-02-06T21:22:49.500Z,36.55
2018-02-06T21:25:17.807Z,39.53
2018-02-06T21:27:46.882Z,40.45
2018-02-06T21:30:15.142Z,37.90
2018-02-06T21:32:43.419Z,38.20
2018-02-06T21:35:11.720Z,37.83
2018-02-06T21:37:39.985Z,34.97
2018-02-06T21:40:08.293Z,43.13
2018-02-06T21:42:36.592Z,39.13
2018-02-06T21:45:05.614Z,47.10
2018-02-06T21:47:33.873Z,38.40
2018-02-06T21:50:02.140Z,39.47
2018-02-06T21:52:31.167Z,36.15
2018-02-06T21:54:59.427Z,47.30
2018-02-06T21:57:27.683Z,34.63
2018-02-06T21:59:56.724Z,43.78
2018-02-06T22:02:25.017Z,41.00
2018-02-06T22:04:53.279Z,37.80
2018-02-06T22:07:21.550Z,39.42
2018-02-06T22:09:49.810Z,43.80
2018-02-06T22:12:18.120Z,41.50
2018-02-06T22:14:47.151Z,41.15
2018-02-06T22:17:16.184Z,37.35
2018-02-06T22:19:44.481Z,38.72
2018-02-06T22:22:12.702Z,44.33
2018-02-06T22:24:40.970Z,45.72
2018-02-06T22:27:10.036Z,41.50
2018-02-06T22:29:38.470Z,34.65
2018-02-06T22:32:06.732Z,37.55
2018-02-06T22:34:35.014Z,41.00
2018-02-06T22:37:03.275Z,36.00
2018-02-06T22:39:32.295Z,32.53
2018-02-06T22:42:00.559Z,40.65
2018-02-06T22:44:28.814Z,39.53
2018-02-06T22:46:57.854Z,38.60
2018-02-06T22:49:26.118Z,40.42
2018-02-06T22:51:54.374Z,42.75
2018-02-06T22:54:22.629Z,38.92
2018-02-06T22:56:51.672Z,38.08
2018-02-06T22:59:19.934Z,35.08
2018-02-06T23:01:48.202Z,38.97
2018-02-06T23:04:16.592Z,43.97
2018-02-06T23:06:45.012Z,38.53
2018-02-06T23:09:13.334Z,36.17
2018-02-06T23:11:42.445Z,37.92
2018-02-06T23:14:11.230Z,36.80
2018-02-06T23:16:39.938Z,40.12
2018-02-06T23:19:08.310Z,41.22
2018-02-06T23:21:36.746Z,38.38
2018-02-06T23:24:06.073Z,36.10
2018-02-06T23:26:34.485Z,33.33
2018-02-06T23:29:02.756Z,37.55
2018-02-06T23:31:31.062Z,36.08
2018-02-06T23:34:00.092Z,41.45
2018-02-06T23:36:28.342Z,31.00
2018-02-06T23:38:57.397Z,36.58
2018-02-06T23:41:25.649Z,34.45
2018-02-06T23:43:53.944Z,38.03
2018-02-06T23:46:22.190Z,35.47
2018-02-06T23:48:51.137Z,38.03
2018-02-06T23:51:19.390Z,38.05
2018-02-06T23:53:47.652Z,36.72
2018-02-06T23:56:15.906Z,38.47
2018-02-06T23:58:44.167Z,38.03
